• Join FlightAware (Why Join?)
  • Login
  • US Flag 
04:22AM EDT


 

Airport Tracker/Info


-or-


 

Live Flight TrackerFlight Track Log ✈ GJS3706 ✈ 11-May-2013 ✈ KBTV - KORD

Flight Track Log - Related Links

Times and Time Zones

All times are in EDT time to prevent confusion due to time zone crossing. See the GJS3706 flight status page for this flight to view local times or setup timezone preferences in your user account.

Time Position Orientation Groundspeed Altitude Reporting Facility
EDT Latitude Longitude Course Direction KTS MPH feet Rate Location/Type
11:33AM 44.4006 -73.1925 237° Southwest 210 242 5,400  Level Boston Center
11:34AM 44.3747 -73.6626 253° West  Level FlightAware Approximate
11:34AM 44.3519 -73.2964 237° Southwest 238 274 8,700  Level Boston Center
11:35AM 44.3537 -73.7914 259° West  Level FlightAware Approximate
11:35AM 44.3117 -73.3800 236° Southwest 258 297 10,900  Level Boston Center
11:36AM 44.3351 -73.9211 259° West  Level FlightAware Approximate
11:36AM 44.2919 -73.4872 256° West 275 316 12,900  Level Boston Center
11:37AM 44.3114 -74.0491 255° West  Level FlightAware Approximate
11:37AM 44.2783 -73.6058 261° West 305 351 14,900  Level Boston Center
11:38AM 44.2894 -73.7336 277° West 322 371 17,200 1,800 Climbing Boston Center
11:39AM 44.2964 -73.8614 274° West 329 379 18,900 1,560 Climbing Boston Center
11:40AM 44.3025 -74.0211 273° West 335 386 20,700 1,380 Climbing Boston Center
11:41AM 44.2839 -74.1539 259° West 341 392 22,000 1,320 Climbing Boston Center
11:42AM 44.2544 -74.3153 256° West 355 409 23,700 1,500 Climbing Boston Center
11:43AM 44.2333 -74.4567 258° West 360 414 25,100 1,380 Climbing Boston Center
11:44AM 44.2078 -74.5978 256° West 365 420 26,500 1,200 Climbing Boston Center
11:45AM 44.1842 -74.7389 257° West 376 433 27,600 960 Climbing Boston Center
11:46AM 44.1628 -74.8711 257° West 387 445 28,500 840 Climbing Boston Center
11:47AM 44.1386 -75.0178 257° West 392 451 29,300 840 Climbing Boston Center
11:48AM 44.1122 -75.1697 256° West 392 451 30,200 900 Climbing Boston Center
11:49AM 44.0878 -75.3161 257° West 392 451 31,200 960 Climbing Boston Center
11:50AM 44.0631 -75.4681 257° West 392 451 32,200 960 Climbing Boston Center
11:51AM 44.0361 -75.6142 256° West 392 451 33,200 960 Climbing Boston Center
11:52AM 44.0114 -75.7572 257° West 392 451 34,200 960 Climbing Boston Center
11:53AM 43.9864 -75.9000 256° West 392 451 35,200 900 Climbing Boston Center
11:54AM 43.9589 -76.0456 255° West 392 451 36,000 360 Climbing Boston Center
11:55AM 43.9458 -76.1919 263° West 392 451 36,000  Level Boston Center
11:56AM 43.9306 -76.3411 262° West 392 451 36,000  Level Boston Center
11:57AM 43.9189 -76.4931 264° West 397 457 36,000  Level Boston Center
11:58AM 43.9050 -76.6478 263° West 402 463 36,000  Level Boston Center
11:59AM 43.8667 -76.8167 253° West 420 483 36,000  Level Toronto Center
12:00PM 43.8500 -76.9667 261° West 420 483 36,000  Level Toronto Center
12:01PM 43.8333 -77.1167 261° West 420 483 36,000  Level Toronto Center
12:02PM 43.8167 -77.2833 262° West 410 472 36,000  Level Toronto Center
12:03PM 43.8167 -77.4333 270° West 410 472 36,000  Level Toronto Center
12:04PM 43.8000 -77.6000 262° West 410 472 36,000  Level Toronto Center
12:05PM 43.7833 -77.7667 262° West 410 472 36,000  Level Toronto Center
12:06PM 43.7667 -77.9000 260° West 410 472 36,000  Level Toronto Center
12:07PM 43.7500 -78.0667 262° West 410 472 36,000  Level Toronto Center
12:08PM 43.7167 -78.2333 255° West 410 472 36,000  Level Toronto Center
12:09PM 43.7000 -78.3833 261° West 410 472 36,000  Level Toronto Center
12:10PM 43.7000 -78.5333 270° West 410 472 36,000  Level Toronto Center
12:11PM 43.6833 -78.6833 261° West 400 460 36,000  Level Toronto Center
12:12PM 43.6667 -78.8333 261° West 390 449 36,000  Level Toronto Center
12:13PM 43.6500 -78.9667 260° West 380 437 36,000  Level Toronto Center
12:14PM 43.6500 -79.1333 270° West 390 449 36,000  Level Toronto Center
12:15PM 43.6333 -79.2667 260° West 390 449 36,000  Level Toronto Center
12:16PM 43.6167 -79.4333 262° West 400 460 36,000  Level Toronto Center
12:17PM 43.6000 -79.5833 261° West 400 460 36,000  Level Toronto Center
12:18PM 43.5833 -79.7333 261° West 390 449 36,000  Level Toronto Center
12:19PM 43.5667 -79.8667 260° West 390 449 36,000  Level Toronto Center
12:20PM 43.5500 -80.0167 261° West 380 437 36,000  Level Toronto Center
12:21PM 43.5333 -80.1667 261° West 380 437 36,000  Level Toronto Center
12:22PM 43.5167 -80.3167 261° West 380 437 36,000  Level Toronto Center
12:23PM 43.5167 -80.4667 270° West 390 449 36,000  Level Toronto Center
12:24PM 43.5000 -80.6000 260° West 390 449 36,000  Level Toronto Center
12:25PM 43.4833 -80.7333 260° West 390 449 36,000  Level Toronto Center
12:26PM 43.4500 -80.9000 255° West 380 437 36,000  Level Toronto Center
12:27PM 43.4333 -81.0333 260° West 370 426 36,000  Level Toronto Center
12:28PM 43.4167 -81.1667 260° West 370 426 36,000  Level Toronto Center
12:29PM 43.4167 -81.3167 270° West 370 426 36,000  Level Toronto Center
12:30PM 43.4000 -81.4667 261° West 370 426 36,000  Level Toronto Center
12:31PM 43.3833 -81.6000 260° West 370 426 36,000  Level Toronto Center
12:32PM 43.3667 -81.7167 259° West 370 426 36,000  Level Toronto Center
12:33PM 43.3500 -81.8833 262° West 370 426 36,000  Level Toronto Center
12:34PM 43.3167 -82.0167 251° West 370 426 36,000  Level Toronto Center
12:35PM 43.3167 -82.1500 270° West 370 426 36,000  Level Toronto Center
12:36PM 43.3000 -82.2833 260° West 370 426 36,000  Level Toronto Center
12:37PM 43.2833 -82.4333 261° West 370 426 36,000  Level Toronto Center
12:38PM 43.2667 -82.5667 260° West 370 426 36,000  Level Toronto Center
12:39PM 43.2333 -82.7000 251° West 370 426 36,000  Level Toronto Center
12:40PM 43.2000 -82.8333 251° West 370 426 36,000  Level Toronto Center
12:42PM 43.1744 -83.0086 259° West 373 429 36,000  Level Cleveland Center
12:43PM 43.1383 -83.1353 249° West 378 435 36,000 -360 Level Cleveland Center
12:44PM 43.1022 -83.2675 250° West 378 435 35,300 -900 Descending Cleveland Center
12:45PM 43.0658 -83.3908 248° West 365 420 34,300 -1,020 Descending Cleveland Center
12:46PM 43.0292 -83.5200 249° West 365 420 33,300 -1,020 Descending Cleveland Center
12:47PM 42.9992 -83.6322 250° West 365 420 32,300 -660 Descending Cleveland Center
12:48PM 42.9647 -83.7581 250° West 365 420 32,000 -180 Descending Cleveland Center
12:49PM 42.9525 -83.8908 263° West 358 412 32,000  Level Cleveland Center
12:50PM 42.9381 -84.0261 262° West 358 412 32,000  Level Cleveland Center
12:51PM 42.9278 -84.1619 264° West 358 412 32,000  Level Cleveland Center
12:52PM 42.9133 -84.2942 262° West 358 412 32,000  Level Cleveland Center
12:53PM 42.9000 -84.4389 263° West 361 415 32,000  Level Chicago Center
12:54PM 42.8856 -84.5747 262° West 362 417 32,000  Level Chicago Center
12:55PM 42.8719 -84.7083 262° West 359 413 32,000  Level Chicago Center
12:56PM 42.8578 -84.8428 262° West 359 413 32,000  Level Chicago Center
12:57PM 42.8433 -84.9772 262° West 359 413 32,000  Level Chicago Center
12:58PM 42.8289 -85.1106 262° West 356 410 32,000 -420 Level Chicago Center
12:59PM 42.8144 -85.2442 262° West 357 411 31,200 -1,140 Descending Chicago Center
01:00PM 42.8006 -85.3772 262° West 356 410 29,700 -1,620 Descending Chicago Center
01:01PM 42.7803 -85.5344 260° West 351 404 27,900 -1,620 Descending Chicago Center
01:02PM 42.7558 -85.6647 256° West 353 406 26,400 -1,560 Descending Chicago Center
01:03PM 42.7317 -85.7981 256° West 359 413 24,800 -1,560 Descending Chicago Center
01:04PM 42.7086 -85.9319 257° West 361 415 23,300 -1,500 Descending Chicago Center
01:05PM 42.6850 -86.0606 256° West 352 405 21,800 -1,320 Descending Chicago Center
01:06PM 42.6617 -86.1883 256° West 347 399 20,600 -1,140 Descending Chicago Center
01:07PM 42.6386 -86.3114 256° West 340 391 19,500 -1,080 Descending Chicago Center
01:08PM 42.6156 -86.4333 256° West 334 384 18,400 -1,080 Descending Chicago Center
01:09PM 42.5917 -86.5544 255° West 333 383 17,400 -1,140 Descending Chicago Center
01:10PM 42.5650 -86.6986 256° West 329 379 16,100 -1,500 Descending Chicago Center
01:11PM 42.5383 -86.8106 252° West 318 366 14,400 -1,620 Descending Chicago Center
01:12PM 42.5072 -86.9222 249° West 317 365 12,800 -1,620 Descending Chicago Center
01:13PM 42.4781 -87.0311 250° West 310 357 11,200 -1,260 Descending Chicago Center
01:14PM 42.4508 -87.1281 249° West 284 327 10,300 -960 Descending Chicago Center
01:15PM 42.4267 -87.2139 249° West 252 290 9,300 -840 Descending Chicago Center
01:16PM 42.4033 -87.3014 250° West 248 285 8,600 -1,260 Descending Chicago Center
01:17PM 42.3747 -87.4003 249° West 251 289 6,800 -1,320 Descending Chicago Center
01:18PM 42.3494 -87.4839 248° West 243 280 6,000 -840 Descending Chicago Center
01:19PM 42.2725 -87.4858 181° South 266 306 5,100 -540 Descending Chicago Center
01:20PM 42.1975 -87.4689 170° South 271 312 5,000 -240 Descending Chicago Center
01:21PM 42.1244 -87.4539 171° South 268 308 4,700 -540 Descending Chicago Center
01:22PM 42.0583 -87.4356 168° South 255 293 4,000 -360 Descending Chicago Center
01:24PM 42.0144 -87.4656 207° Southwest 235 270 4,000  Level Chicago Center
01:25PM 42.0000 -87.5500 257° West 162 186 4,000  Level Chicago TRACON
01:26PM 42.0000 -87.6000 270° West 164 189 4,000  Level Chicago TRACON
01:27PM 42.0000 -87.6667 270° West 166 191 4,000  Level Chicago TRACON